Latest Weather Observations for Victoria River Downs

IDD60801

Issued at 5:11 am CST Thursday 6 October 2022 (issued every 10 minutes, with the page automatically refreshed every 10 minutes)

About weather observations | Map of weather stations | Latest weather observations for NT | Other Formats
Station Details ID: 014825 Name: VICTORIA RIVER DOWNS Lat: -16.40 Lon: 131.01 Height: 88.5 m
Data from the previous 72 hours. | See also: Recent months at Victoria River Downs
Date/Time
CST
Temp
°C
App
Temp
°C
Dew
Point
°C
Rel
Hum
%
Delta-T
°C
Wind Press
QNH
hPa
Press
MSL
hPa
Rain since
9am
mm
Dir  Spd
km/h
Gust
km/h
Spd
kts
Gust
kts
06/05:00am 24.1 28.3 22.5 91 1.1 WNW 4 6 2 3 1011.8 1011.1 8.0
06/04:30am 23.9 28.5 22.5 92 0.9 E 2 4 1 2 1011.5 1010.8 8.0
06/04:00am 23.9 28.0 22.3 91 1.1 E 4 7 2 4 1011.1 1010.4 8.0
06/03:30am 23.9 28.4 22.3 91 1.1 ESE 2 6 1 3 1011.0 1010.3 8.0
06/03:00am 23.7 27.4 22.3 92 0.9 SE 6 9 3 5 1010.7 1010.1 8.0
06/02:30am 23.7 27.7 22.1 91 1.1 E 4 7 2 4 1011.2 1010.5 8.0
06/02:00am 24.1 28.9 22.9 93 0.8 NNE 2 6 1 3 1011.6 1010.9 8.0
06/01:30am 24.1 28.0 22.5 91 1.1 ESE 6 9 3 5 1012.0 1011.3 8.0
06/01:00am 24.1 28.3 22.5 91 1.1 S 4 6 2 3 1012.3 1011.6 8.0
06/12:30am 24.1 28.0 22.5 91 1.1 SSW 6 11 3 6 1012.7 1012.0 8.0
06/12:00am 24.5 27.0 22.4 88 1.4 SE 13 20 7 11 1011.9 1011.2 5.4
 
Date/Time
CST
Temp
°C
App
Temp
°C
Dew
Point
°C
Rel
Hum
%
Delta-T
°C
Wind Press
QNH
hPa
Press
MSL
hPa
Rain since
9am
mm
Dir  Spd
km/h
Gust
km/h
Spd
kts
Gust
kts
05/11:30pm 24.4 26.9 22.5 89 1.3 SE 13 22 7 12 1012.0 1011.3 5.4
05/11:00pm 26.2 29.1 21.8 77 2.9 SSW 9 15 5 8 1012.3 1011.6 3.0
05/10:30pm 25.9 28.4 21.1 75 3.2 S 9 19 5 10 1012.3 1011.6 3.0
05/10:22pm 26.0 29.6 22.3 80 2.5 SSW 7 15 4 8 1012.3 1011.6 3.0
05/10:00pm 27.2 28.9 21.7 72 3.7 WSW 15 28 8 15 1011.7 1011.0 2.8
05/09:37pm 27.4 31.6 23.2 78 2.9 E 6 26 3 14 1011.1 1010.4 2.8
05/09:30pm 27.3 31.4 22.3 74 3.4 E 4 6 2 3 1010.5 1009.9 2.8
05/09:00pm 27.5 31.0 21.8 71 3.8 E 6 9 3 5 1010.0 1009.4 2.8
05/08:30pm 27.7 31.4 21.5 69 4.2 SE 4 6 2 3 1009.5 1008.9 2.8
05/08:00pm 27.8 30.1 21.3 67 4.3 ENE 11 15 6 8 1009.1 1008.5 2.8
05/07:30pm 28.3 29.7 20.3 62 5.3 ESE 13 20 7 11 1009.0 1008.4 2.8
05/07:00pm 28.7 29.9 20.7 62 5.3 SE 15 22 8 12 1008.3 1007.7 2.8
05/06:31pm 27.6 28.5 21.6 70 4.0 SSE 19 32 10 17 1007.9 1007.3 2.8
05/06:30pm 27.5 28.6 21.3 69 4.1 SSE 17 32 9 17 1007.9 1007.3 2.8
05/06:17pm 26.7 26.2 22.1 76 3.1 S 28 48 15 26 1007.7 1007.1 2.8
05/06:14pm 26.9 27.6 22.3 76 3.1 S 22 39 12 21 1007.6 1007.0 2.4
05/06:00pm 32.6 32.1 19.1 44 8.9 SW 20 41 11 22 1007.2 1006.6 0.0
05/05:45pm 36.8 37.8 16.4 30 13.1 WSW 6 6 3 3 1006.9 1006.3 0.0
05/05:30pm 37.0 38.8 16.5 29 13.2 N 2 6 1 3 1006.7 1006.1 0.0
05/05:00pm 36.6 36.8 16.7 30 12.8 NNE 11 17 6 9 1006.6 1006.0 0.0
05/04:30pm 38.0 40.0 16.9 29 13.7 ENE 2 9 1 5 1006.7 1006.1 0.0
05/04:00pm 36.9 38.5 17.0 31 12.9 N 4 7 2 4 1007.0 1006.4 0.0
05/03:30pm 37.6 38.7 17.1 30 13.3 ESE 7 19 4 10 1007.4 1006.8 0.0
05/03:00pm 36.7 37.1 17.3 31 12.6 ENE 11 22 6 12 1007.7 1007.1 0.0
05/02:30pm 36.7 38.3 18.3 34 12.1 NNW 7 15 4 8 1007.9 1007.3 0.0
05/02:00pm 36.9 37.8 17.5 32 12.6 ENE 9 20 5 11 1008.3 1007.7 0.0
05/01:30pm 35.5 36.8 17.2 33 11.8 ENE 6 13 3 7 1008.9 1008.3 0.0
05/01:00pm 36.1 37.5 17.3 33 12.2 NNW 6 13 3 7 1009.5 1008.9 0.0
05/12:30pm 36.0 37.4 17.7 34 11.9 NW 7 15 4 8 1010.1 1009.5 0.0
05/12:00pm 34.8 36.3 18.0 37 10.9 S 7 13 4 7 1010.8 1010.2 0.0
05/11:30am 35.0 36.4 18.6 38 10.8 SW 9 15 5 8 1011.3 1010.6 0.0
05/11:00am 34.5 36.4 18.5 38 10.5 SW 6 15 3 8 1011.9 1011.2 0.0
05/10:30am 33.2 35.0 18.2 41 9.7 SW 6 11 3 6 1012.3 1011.6 0.0
05/10:00am 32.2 33.5 18.4 44 9.0 W 9 17 5 9 1012.5 1011.8 0.0
05/09:30am 31.2 33.8 19.2 48 7.9 SSW 4 7 2 4 1012.6 1011.9 0.0
05/09:00am 30.0 32.8 19.7 54 6.8 SW 4 9 2 5 1012.7 1012.0 0.0
05/08:30am 28.5 31.3 19.7 59 5.8 S 4 6 2 3 1012.4 1011.7 0.0
05/08:00am 27.3 30.1 19.6 62 5.0 NE 4 6 2 3 1012.2 1011.5 0.0
05/07:30am 26.1 28.8 19.5 67 4.3 E 4 6 2 3 1011.9 1011.2 0.0
05/07:00am 24.9 27.5 19.3 71 3.6 E 4 6 2 3 1011.7 1011.0 0.0
05/06:30am 24.2 26.2 18.8 72 3.4 E 6 6 3 3 1011.4 1010.7 0.0
05/06:00am 24.5 26.7 18.4 69 3.9 E 4 6 2 3 1010.8 1010.2 0.0
05/05:30am 24.7 27.0 18.6 69 3.9 E 4 6 2 3 1010.7 1010.1 0.0
05/05:00am 25.0 26.8 18.4 66 4.2 E 6 9 3 5 1010.5 1009.9 0.0
05/04:30am 25.0 27.2 18.4 66 4.2 E 4 6 2 3 1010.7 1010.1 0.0
05/04:00am 25.4 27.1 18.1 64 4.6 ENE 6 6 3 3 1010.4 1009.8 0.0
05/03:30am 25.8 28.8 18.5 64 4.7 CALM 0 2 0 1 1010.4 1009.8 0.0
05/03:00am 26.4 28.1 18.0 60 5.3 ENE 6 9 3 5 1010.1 1009.5 0.0
05/02:30am 27.3 29.2 18.6 59 5.6 NE 6 9 3 5 1009.9 1009.3 0.0
05/02:00am 27.4 29.6 18.4 58 5.8 NNE 4 7 2 4 1010.1 1009.5 0.0
05/01:30am 27.4 29.2 18.4 58 5.8 NE 6 7 3 4 1010.3 1009.7 0.0
05/01:00am 27.6 29.3 18.0 55 6.1 NNE 6 7 3 4 1010.6 1010.0 0.0
05/12:30am 28.1 29.3 18.2 55 6.3 N 9 13 5 7 1011.0 1010.3 0.0
05/12:00am 28.3 30.1 18.4 55 6.4 N 6 9 3 5 1011.2 1010.5 0.0
 
Date/Time
CST
Temp
°C
App
Temp
°C
Dew
Point
°C
Rel
Hum
%
Delta-T
°C
Wind Press
QNH
hPa
Press
MSL
hPa
Rain since
9am
mm
Dir  Spd
km/h
Gust
km/h
Spd
kts
Gust
kts
04/11:30pm 28.8 30.2 18.6 54 6.6 N 9 15 5 8 1011.2 1010.5 0.0
04/11:00pm 29.0 30.8 18.7 53 6.7 NW 7 11 4 6 1011.5 1010.8 0.0
04/10:30pm 29.2 30.5 19.2 54 6.5 N 11 15 6 8 1011.5 1010.8 0.0
04/10:00pm 29.7 31.4 19.4 54 6.7 NW 9 19 5 10 1011.7 1011.0 0.0
04/09:30pm 29.7 29.7 19.7 55 6.6 N 19 32 10 17 1010.5 1009.9 0.0
04/09:00pm 29.9 28.9 19.6 54 6.8 N 24 44 13 24 1009.9 1009.3 0.0
04/08:30pm 32.1 30.9 18.3 44 9.0 NNE 22 43 12 23 1009.0 1008.4 0.0
04/08:28pm 32.5 32.0 17.9 41 9.4 NNE 17 43 9 23 1008.9 1008.3 0.0
04/08:00pm 34.3 35.6 16.2 34 11.5 NE 4 6 2 3 1008.1 1007.5 0.0
04/07:30pm 34.4 35.8 16.3 34 11.5 NE 4 7 2 4 1007.5 1006.9 0.0
04/07:00pm 35.0 35.8 15.8 31 12.1 NE 6 9 3 5 1007.1 1006.5 0.0
04/06:30pm 35.0 36.4 16.3 32 11.9 NE 4 7 2 4 1006.9 1006.3 0.0
04/06:00pm 35.7 36.5 16.4 31 12.3 NW 7 13 4 7 1006.8 1006.2 0.0
04/05:30pm 35.7 36.1 16.4 31 12.3 NW 9 17 5 9 1006.7 1006.1 0.0
04/05:00pm 36.0 38.3 16.7 31 12.4 CALM 0 4 0 2 1006.5 1005.9 0.0
04/04:30pm 36.0 37.5 16.7 31 12.4 W 4 7 2 4 1006.5 1005.9 0.0
04/04:00pm 36.2 37.4 16.9 32 12.4 SSW 6 9 3 5 1006.6 1006.0 0.0
04/03:30pm 37.0 38.5 17.6 32 12.7 S 6 13 3 7 1006.5 1005.9 0.0
04/03:00pm 35.6 37.0 17.3 33 11.8 S 6 9 3 5 1006.9 1006.3 0.0
04/02:30pm 35.8 36.5 17.0 32 12.1 NNE 9 13 5 7 1007.3 1006.7 0.0
04/02:00pm 35.6 36.4 17.3 33 11.8 NNW 9 17 5 9 1007.8 1007.2 0.0
04/01:30pm 35.8 37.4 17.9 34 11.7 WSW 6 13 3 7 1008.5 1007.9 0.0
04/01:00pm 34.9 36.4 17.6 35 11.2 WNW 6 13 3 7 1009.2 1008.6 0.0
04/12:30pm 34.7 36.1 17.9 37 10.9 NNW 7 15 4 8 1010.0 1009.4 0.0
04/12:00pm 34.6 35.8 18.2 37 10.7 SW 9 19 5 10 1010.5 1009.9 0.0
04/11:30am 34.5 36.2 18.1 37 10.7 SW 6 13 3 7 1011.1 1010.4 0.0
04/11:00am 32.6 34.1 18.0 41 9.4 NNE 7 11 4 6 1011.5 1010.8 0.0
04/10:30am 31.9 33.4 18.1 43 8.9 ENE 7 13 4 7 1012.0 1011.3 0.0
04/10:00am 31.7 33.5 18.3 45 8.7 ESE 6 15 3 8 1012.2 1011.5 0.0
04/09:30am 30.7 32.9 19.1 50 7.6 SE 6 9 3 5 1012.5 1011.8 0.0
04/09:00am 30.1 32.4 19.5 53 6.9 S 6 9 3 5 1012.5 1011.8 0.0
04/08:30am 29.2 31.0 19.5 56 6.3 S 9 13 5 7 1012.0 1011.3 0.0
04/08:00am 28.0 29.4 19.5 60 5.5 S 11 15 6 8 1011.6 1010.9 0.0
04/07:30am 28.0 30.0 19.2 58 5.7 S 7 13 4 7 1011.5 1010.8 0.0
04/07:00am 27.2 29.3 19.0 61 5.3 SSW 6 11 3 6 1011.2 1010.5 0.0
04/06:30am 27.0 28.8 18.8 60 5.3 S 7 13 4 7 1010.7 1010.1 0.0
04/06:00am 27.3 27.7 19.1 61 5.3 SSW 15 22 8 12 1010.4 1009.8 0.0
04/05:30am 27.8 28.3 19.3 60 5.5 S 15 26 8 14 1009.9 1009.3 0.0
04/05:00am 29.8 30.6 15.9 43 8.6 WSW 6 11 3 6 1009.2 1008.6 0.0
04/04:30am 30.2 30.8 15.9 42 8.9 SW 7 13 4 7 1008.9 1008.3 0.0
04/04:00am 30.3 31.5 16.0 42 8.9 WSW 4 7 2 4 1008.5 1007.9 0.0
04/03:30am 30.4 30.7 16.0 41 9.0 WNW 9 13 5 7 1007.9 1007.3 0.0
04/03:00am 30.6 30.2 16.2 41 9.0 NW 13 19 7 10 1007.9 1007.3 0.0
04/02:30am 30.7 30.6 15.9 40 9.2 WNW 11 17 6 9 1007.7 1007.1 0.0
04/02:00am 30.9 30.3 15.7 39 9.5 WNW 13 19 7 10 1007.6 1007.0 0.0
04/01:30am 31.2 30.8 15.2 38 9.9 WNW 11 15 6 8 1007.8 1007.2 0.0
04/01:00am 31.7 30.8 14.8 36 10.4 WNW 13 22 7 12 1007.7 1007.1 0.0
04/12:30am 31.2 31.0 14.8 37 10.1 WNW 9 11 5 6 1007.7 1007.1 0.0
04/12:00am 31.6 31.9 15.1 36 10.2 WNW 7 11 4 6 1007.5 1006.9 0.0
 
Date/Time
CST
Temp
°C
App
Temp
°C
Dew
Point
°C
Rel
Hum
%
Delta-T
°C
Wind Press
QNH
hPa
Press
MSL
hPa
Rain since
9am
mm
Dir  Spd
km/h
Gust
km/h
Spd
kts
Gust
kts
03/11:30pm 32.0 31.8 14.6 34 10.7 WNW 9 11 5 6 1007.6 1007.0 0.0
03/11:00pm 32.6 32.6 14.2 32 11.3 NW 7 11 4 6 1007.6 1007.0 0.0
03/10:30pm 32.4 32.2 13.6 32 11.4 NW 7 9 4 5 1007.6 1007.0 0.0
03/10:00pm 32.3 32.3 13.5 32 11.4 NW 6 7 3 4 1007.5 1006.9 0.0
03/09:30pm 31.7 32.0 13.5 33 11.0 WNW 4 6 2 3 1007.5 1006.9 0.0
03/09:00pm 32.6 32.7 12.8 30 11.9 WNW 4 6 2 3 1007.2 1006.6 0.0
03/08:30pm 32.7 32.7 12.3 28 12.2 NW 4 6 2 3 1007.0 1006.4 0.0
03/08:00pm 33.6 33.8 13.1 29 12.4 NW 4 4 2 2 1006.7 1006.1 0.0
03/07:30pm 34.8 34.4 12.5 26 13.5 NW 6 7 3 4 1006.4 1005.8 0.0
03/07:00pm 35.8 34.9 12.7 25 14.0 NW 9 13 5 7 1005.9 1005.3 0.0
03/06:30pm 36.7 35.3 12.2 23 14.8 NW 11 15 6 8 1005.5 1004.9 0.0
03/06:00pm 37.3 35.8 12.0 22 15.3 NW 11 17 6 9 1005.1 1004.5 0.0
03/05:30pm 37.1 36.2 12.5 23 15.0 N 9 15 5 8 1004.8 1004.2 0.0
03/05:00pm 37.3 36.6 13.3 23 14.8 NNE 9 20 5 11 1004.6 1003.9 0.0
03/04:30pm 38.2 37.0 12.7 21 15.6 NNW 11 24 6 13 1004.6 1003.9 0.0
03/04:00pm 37.4 36.6 12.8 23 15.0 N 9 19 5 10 1004.7 1004.1 0.0
03/03:30pm 37.1 35.8 12.5 23 15.0 NW 11 20 6 11 1004.8 1004.2 0.0
03/03:00pm 37.5 37.5 13.5 24 14.8 NNE 6 17 3 9 1004.9 1004.3 0.0
03/02:30pm 37.0 36.6 13.1 24 14.7 NNE 7 19 4 10 1005.3 1004.7 0.0
03/02:00pm 37.0 36.1 13.7 25 14.4 NNW 11 24 6 13 1006.0 1005.4 0.0
03/01:30pm 36.3 35.4 12.5 24 14.4 NNE 9 19 5 10 1006.7 1006.1 0.0
03/01:00pm 35.1 35.0 13.3 27 13.3 NE 6 15 3 8 1007.3 1006.7 0.0
03/12:30pm 35.4 33.9 13.0 26 13.6 NNW 13 24 7 13 1007.9 1007.3 0.0
03/12:00pm 35.3 35.1 14.6 29 12.9 NW 9 13 5 7 1008.8 1008.2 0.0
03/11:30am 33.6 34.1 14.1 30 12.0 E 4 7 2 4 1009.5 1008.9 0.0
03/11:00am 32.6 33.4 14.7 34 11.0 ENE 4 9 2 5 1010.0 1009.4 0.0
03/10:30am 31.8 32.9 15.7 37 10.1 NW 4 6 2 3 1010.5 1009.9 0.0
03/10:00am 31.1 31.9 15.9 40 9.5 ESE 6 9 3 5 1011.0 1010.3 0.0
03/09:30am 29.5 30.2 15.6 43 8.6 SSE 6 9 3 5 1011.2 1010.5 0.0
03/09:00am 28.2 29.0 15.8 47 7.7 SSE 6 9 3 5 1011.1 1010.4 0.0
03/08:30am 26.9 28.0 15.6 50 6.9 SE 4 7 2 4 1011.1 1010.4 0.0
03/08:00am 24.6 26.7 16.3 60 5.1 CALM 0 0 0 0 1010.4 1009.8 0.0
03/07:30am 23.6 25.6 15.9 62 4.7 CALM 0 0 0 0 1010.0 1009.4 0.0
03/07:00am 23.0 24.7 15.1 61 4.7 CALM 0 0 0 0 1009.6 1009.0 0.0
03/06:30am 22.7 24.3 14.8 61 4.7 CALM 0 0 0 0 1009.3 1008.7 0.0
03/06:00am 23.4 25.1 15.2 60 4.9 CALM 0 2 0 1 1009.1 1008.5 0.0
03/05:30am 23.7 24.6 15.2 59 5.1 SSW 4 6 2 3 1008.8 1008.2 0.0

Other formats

Comma delimited format used in spreadsheet applications
http://www.bom.gov.au/fwo/IDD60801/IDD60801.94232.axf

JavaScript Object Notation format (JSON) in row-major order
http://www.bom.gov.au/fwo/IDD60801/IDD60801.94232.json

Data quality

Most of these data are generated automatically and are frequently updated. Quality checks on data are not normally performed. It is possible for incorrect values to appear. Refer to information at About Latest Weather Observations and please check the disclaimer before using these data.